sensor_id;sensor_type;location;lat;lon;timestamp;P1;durP1;ratioP1;P2;durP2;ratioP2
6356;SDS011;3211;53.452;-2.264;2023-01-28T00:01:06;12.10;;;8.17;;
6356;SDS011;3211;53.452;-2.264;2023-01-28T00:03:34;11.90;;;8.97;;
6356;SDS011;3211;53.452;-2.264;2023-01-28T00:06:02;11.10;;;7.80;;
6356;SDS011;3211;53.452;-2.264;2023-01-28T00:08:30;13.37;;;8.10;;
6356;SDS011;3211;53.452;-2.264;2023-01-28T00:10:58;11.60;;;7.53;;
6356;SDS011;3211;53.452;-2.264;2023-01-28T00:13:25;12.37;;;8.23;;
6356;SDS011;3211;53.452;-2.264;2023-01-28T00:15:57;11.43;;;7.80;;
6356;SDS011;3211;53.452;-2.264;2023-01-28T00:18:25;13.83;;;8.33;;
6356;SDS011;3211;53.452;-2.264;2023-01-28T00:20:56;14.87;;;8.40;;
6356;SDS011;3211;53.452;-2.264;2023-01-28T00:23:24;10.37;;;7.27;;
6356;SDS011;3211;53.452;-2.264;2023-01-28T00:25:51;11.43;;;8.47;;
6356;SDS011;3211;53.452;-2.264;2023-01-28T00:28:18;12.10;;;8.33;;
6356;SDS011;3211;53.452;-2.264;2023-01-28T00:30:46;10.27;;;8.27;;
6356;SDS011;3211;53.452;-2.264;2023-01-28T00:33:14;12.13;;;8.37;;
6356;SDS011;3211;53.452;-2.264;2023-01-28T00:35:41;15.53;;;8.60;;
6356;SDS011;3211;53.452;-2.264;2023-01-28T00:38:08;9.50;;;8.17;;
6356;SDS011;3211;53.452;-2.264;2023-01-28T00:40:36;11.10;;;8.10;;
6356;SDS011;3211;53.452;-2.264;2023-01-28T00:43:03;13.13;;;9.33;;
6356;SDS011;3211;53.452;-2.264;2023-01-28T00:45:30;15.93;;;8.63;;
6356;SDS011;3211;53.452;-2.264;2023-01-28T00:47:57;14.50;;;9.43;;
6356;SDS011;3211;53.452;-2.264;2023-01-28T00:50:25;13.80;;;9.20;;
6356;SDS011;3211;53.452;-2.264;2023-01-28T00:52:52;13.43;;;9.07;;
6356;SDS011;3211;53.452;-2.264;2023-01-28T00:55:19;13.53;;;9.33;;
6356;SDS011;3211;53.452;-2.264;2023-01-28T00:57:46;13.83;;;9.60;;
6356;SDS011;3211;53.452;-2.264;2023-01-28T01:00:14;13.40;;;9.03;;
6356;SDS011;3211;53.452;-2.264;2023-01-28T01:02:44;12.50;;;9.30;;
6356;SDS011;3211;53.452;-2.264;2023-01-28T01:05:11;13.60;;;9.17;;
6356;SDS011;3211;53.452;-2.264;2023-01-28T01:07:39;15.50;;;10.10;;
6356;SDS011;3211;53.452;-2.264;2023-01-28T01:10:07;17.30;;;11.50;;
6356;SDS011;3211;53.452;-2.264;2023-01-28T01:12:35;31.50;;;20.23;;
6356;SDS011;3211;53.452;-2.264;2023-01-28T01:15:02;28.80;;;19.13;;
6356;SDS011;3211;53.452;-2.264;2023-01-28T01:17:33;17.93;;;12.93;;
6356;SDS011;3211;53.452;-2.264;2023-01-28T01:20:01;15.13;;;11.50;;
6356;SDS011;3211;53.452;-2.264;2023-01-28T01:22:31;22.60;;;13.40;;
6356;SDS011;3211;53.452;-2.264;2023-01-28T01:24:59;36.47;;;21.53;;
6356;SDS011;3211;53.452;-2.264;2023-01-28T01:27:27;22.47;;;14.27;;
6356;SDS011;3211;53.452;-2.264;2023-01-28T01:29:55;17.40;;;10.80;;
6356;SDS011;3211;53.452;-2.264;2023-01-28T01:32:23;16.97;;;10.63;;
6356;SDS011;3211;53.452;-2.264;2023-01-28T01:34:50;15.60;;;9.07;;
6356;SDS011;3211;53.452;-2.264;2023-01-28T01:37:17;13.50;;;9.43;;
6356;SDS011;3211;53.452;-2.264;2023-01-28T01:39:43;18.07;;;10.07;;
6356;SDS011;3211;53.452;-2.264;2023-01-28T01:42:12;16.20;;;11.47;;
6356;SDS011;3211;53.452;-2.264;2023-01-28T01:44:54;16.73;;;10.03;;
6356;SDS011;3211;53.452;-2.264;2023-01-28T01:47:23;13.33;;;9.63;;
6356;SDS011;3211;53.452;-2.264;2023-01-28T01:49:55;14.67;;;10.37;;
6356;SDS011;3211;53.452;-2.264;2023-01-28T01:52:25;20.97;;;13.37;;
6356;SDS011;3211;53.452;-2.264;2023-01-28T01:54:58;15.30;;;10.40;;
6356;SDS011;3211;53.452;-2.264;2023-01-28T01:57:29;14.23;;;10.20;;
6356;SDS011;3211;53.452;-2.264;2023-01-28T01:59:58;15.00;;;10.30;;
6356;SDS011;3211;53.452;-2.264;2023-01-28T02:02:31;15.30;;;10.27;;
6356;SDS011;3211;53.452;-2.264;2023-01-28T02:05:02;14.10;;;10.27;;
6356;SDS011;3211;53.452;-2.264;2023-01-28T02:07:29;14.17;;;9.90;;
6356;SDS011;3211;53.452;-2.264;2023-01-28T02:09:56;17.77;;;11.13;;
6356;SDS011;3211;53.452;-2.264;2023-01-28T02:12:25;13.00;;;9.37;;
6356;SDS011;3211;53.452;-2.264;2023-01-28T02:14:58;15.97;;;10.67;;
6356;SDS011;3211;53.452;-2.264;2023-01-28T02:17:27;16.37;;;11.60;;
6356;SDS011;3211;53.452;-2.264;2023-01-28T02:19:55;14.33;;;10.40;;
6356;SDS011;3211;53.452;-2.264;2023-01-28T02:22:31;14.27;;;9.90;;
6356;SDS011;3211;53.452;-2.264;2023-01-28T02:28:28;17.10;;;11.37;;
6356;SDS011;3211;53.452;-2.264;2023-01-28T02:31:00;17.80;;;10.93;;
6356;SDS011;3211;53.452;-2.264;2023-01-28T02:33:34;17.80;;;9.37;;
6356;SDS011;3211;53.452;-2.264;2023-01-28T02:36:07;15.90;;;10.33;;
6356;SDS011;3211;53.452;-2.264;2023-01-28T02:38:42;15.37;;;10.57;;
6356;SDS011;3211;53.452;-2.264;2023-01-28T02:41:14;14.57;;;9.40;;
6356;SDS011;3211;53.452;-2.264;2023-01-28T02:43:46;16.40;;;11.10;;
6356;SDS011;3211;53.452;-2.264;2023-01-28T02:46:16;21.07;;;10.57;;
6356;SDS011;3211;53.452;-2.264;2023-01-28T02:49:05;16.17;;;10.10;;
6356;SDS011;3211;53.452;-2.264;2023-01-28T02:54:41;17.37;;;10.87;;
6356;SDS011;3211;53.452;-2.264;2023-01-28T02:57:20;15.47;;;11.53;;
6356;SDS011;3211;53.452;-2.264;2023-01-28T02:59:59;15.63;;;11.20;;
6356;SDS011;3211;53.452;-2.264;2023-01-28T03:02:32;12.33;;;9.43;;
6356;SDS011;3211;53.452;-2.264;2023-01-28T03:05:08;16.23;;;10.10;;
6356;SDS011;3211;53.452;-2.264;2023-01-28T03:07:42;14.17;;;10.53;;
6356;SDS011;3211;53.452;-2.264;2023-01-28T03:10:11;14.90;;;10.40;;
6356;SDS011;3211;53.452;-2.264;2023-01-28T03:12:41;18.67;;;11.23;;
6356;SDS011;3211;53.452;-2.264;2023-01-28T03:15:30;14.60;;;11.47;;
6356;SDS011;3211;53.452;-2.264;2023-01-28T03:18:19;14.80;;;10.47;;
6356;SDS011;3211;53.452;-2.264;2023-01-28T03:21:08;16.03;;;10.50;;
6356;SDS011;3211;53.452;-2.264;2023-01-28T03:23:55;15.57;;;10.10;;
6356;SDS011;3211;53.452;-2.264;2023-01-28T03:26:44;15.73;;;9.50;;
6356;SDS011;3211;53.452;-2.264;2023-01-28T03:29:33;15.67;;;11.03;;
6356;SDS011;3211;53.452;-2.264;2023-01-28T03:32:20;16.60;;;11.30;;
6356;SDS011;3211;53.452;-2.264;2023-01-28T03:35:06;18.20;;;11.17;;
6356;SDS011;3211;53.452;-2.264;2023-01-28T03:37:53;16.57;;;11.00;;
6356;SDS011;3211;53.452;-2.264;2023-01-28T03:40:24;13.70;;;10.13;;
6356;SDS011;3211;53.452;-2.264;2023-01-28T03:42:51;14.63;;;10.73;;
6356;SDS011;3211;53.452;-2.264;2023-01-28T03:45:20;14.57;;;10.30;;
6356;SDS011;3211;53.452;-2.264;2023-01-28T03:47:49;17.07;;;11.50;;
6356;SDS011;3211;53.452;-2.264;2023-01-28T03:50:16;13.23;;;9.80;;
6356;SDS011;3211;53.452;-2.264;2023-01-28T03:52:43;15.47;;;10.23;;
6356;SDS011;3211;53.452;-2.264;2023-01-28T03:55:10;13.40;;;10.50;;
6356;SDS011;3211;53.452;-2.264;2023-01-28T03:57:38;14.03;;;9.77;;
6356;SDS011;3211;53.452;-2.264;2023-01-28T04:00:05;13.57;;;9.20;;
6356;SDS011;3211;53.452;-2.264;2023-01-28T04:02:35;15.30;;;10.47;;
6356;SDS011;3211;53.452;-2.264;2023-01-28T04:05:06;16.03;;;10.50;;
6356;SDS011;3211;53.452;-2.264;2023-01-28T04:07:37;13.23;;;9.73;;
6356;SDS011;3211;53.452;-2.264;2023-01-28T04:10:04;14.37;;;10.07;;
6356;SDS011;3211;53.452;-2.264;2023-01-28T04:12:33;12.60;;;9.53;;
6356;SDS011;3211;53.452;-2.264;2023-01-28T04:15:02;15.60;;;10.50;;
6356;SDS011;3211;53.452;-2.264;2023-01-28T04:17:39;17.10;;;10.50;;
6356;SDS011;3211;53.452;-2.264;2023-01-28T04:20:10;16.80;;;10.77;;
6356;SDS011;3211;53.452;-2.264;2023-01-28T04:22:38;13.30;;;9.30;;
6356;SDS011;3211;53.452;-2.264;2023-01-28T04:25:05;14.40;;;9.40;;
6356;SDS011;3211;53.452;-2.264;2023-01-28T04:27:33;15.53;;;9.73;;
6356;SDS011;3211;53.452;-2.264;2023-01-28T04:29:59;16.80;;;10.50;;
6356;SDS011;3211;53.452;-2.264;2023-01-28T04:32:26;14.07;;;10.00;;
6356;SDS011;3211;53.452;-2.264;2023-01-28T04:34:53;12.23;;;9.03;;
6356;SDS011;3211;53.452;-2.264;2023-01-28T04:37:22;14.87;;;10.13;;
6356;SDS011;3211;53.452;-2.264;2023-01-28T04:39:49;15.13;;;9.87;;
6356;SDS011;3211;53.452;-2.264;2023-01-28T04:42:16;12.33;;;9.93;;
6356;SDS011;3211;53.452;-2.264;2023-01-28T04:44:42;12.67;;;9.40;;
6356;SDS011;3211;53.452;-2.264;2023-01-28T04:47:09;13.90;;;9.90;;
6356;SDS011;3211;53.452;-2.264;2023-01-28T04:49:36;11.90;;;9.23;;
6356;SDS011;3211;53.452;-2.264;2023-01-28T04:52:03;13.57;;;9.70;;
6356;SDS011;3211;53.452;-2.264;2023-01-28T04:54:32;13.37;;;9.27;;
6356;SDS011;3211;53.452;-2.264;2023-01-28T04:56:58;16.23;;;10.47;;
6356;SDS011;3211;53.452;-2.264;2023-01-28T04:59:25;13.00;;;9.93;;
6356;SDS011;3211;53.452;-2.264;2023-01-28T05:01:52;13.67;;;9.53;;
6356;SDS011;3211;53.452;-2.264;2023-01-28T05:04:19;15.93;;;10.53;;
6356;SDS011;3211;53.452;-2.264;2023-01-28T05:06:46;14.60;;;10.30;;
6356;SDS011;3211;53.452;-2.264;2023-01-28T05:09:13;16.00;;;9.90;;
6356;SDS011;3211;53.452;-2.264;2023-01-28T05:11:41;12.50;;;10.43;;
6356;SDS011;3211;53.452;-2.264;2023-01-28T05:14:08;10.53;;;9.07;;
6356;SDS011;3211;53.452;-2.264;2023-01-28T05:16:35;12.33;;;10.00;;
6356;SDS011;3211;53.452;-2.264;2023-01-28T05:19:02;15.57;;;9.60;;
6356;SDS011;3211;53.452;-2.264;2023-01-28T05:21:29;13.60;;;10.10;;
6356;SDS011;3211;53.452;-2.264;2023-01-28T05:23:56;15.43;;;10.80;;
6356;SDS011;3211;53.452;-2.264;2023-01-28T05:26:23;13.47;;;9.07;;
6356;SDS011;3211;53.452;-2.264;2023-01-28T05:28:51;12.93;;;10.00;;
6356;SDS011;3211;53.452;-2.264;2023-01-28T05:31:18;15.07;;;9.90;;
6356;SDS011;3211;53.452;-2.264;2023-01-28T05:33:45;14.93;;;9.83;;
6356;SDS011;3211;53.452;-2.264;2023-01-28T05:36:12;12.90;;;10.13;;
6356;SDS011;3211;53.452;-2.264;2023-01-28T05:38:39;14.70;;;9.80;;
6356;SDS011;3211;53.452;-2.264;2023-01-28T05:41:06;11.83;;;9.50;;
6356;SDS011;3211;53.452;-2.264;2023-01-28T05:43:32;13.23;;;9.90;;
6356;SDS011;3211;53.452;-2.264;2023-01-28T05:46:01;15.20;;;9.00;;
6356;SDS011;3211;53.452;-2.264;2023-01-28T05:48:28;12.30;;;9.70;;
6356;SDS011;3211;53.452;-2.264;2023-01-28T05:50:55;11.87;;;8.87;;
6356;SDS011;3211;53.452;-2.264;2023-01-28T05:53:22;13.50;;;10.50;;
6356;SDS011;3211;53.452;-2.264;2023-01-28T05:55:49;21.43;;;8.73;;
6356;SDS011;3211;53.452;-2.264;2023-01-28T05:58:17;16.87;;;9.47;;
6356;SDS011;3211;53.452;-2.264;2023-01-28T06:00:44;14.67;;;9.43;;
6356;SDS011;3211;53.452;-2.264;2023-01-28T06:03:13;14.47;;;10.30;;
6356;SDS011;3211;53.452;-2.264;2023-01-28T06:05:40;16.37;;;10.17;;
6356;SDS011;3211;53.452;-2.264;2023-01-28T06:08:07;12.70;;;9.47;;
6356;SDS011;3211;53.452;-2.264;2023-01-28T06:10:34;12.63;;;9.77;;
6356;SDS011;3211;53.452;-2.264;2023-01-28T06:13:01;16.20;;;10.73;;
6356;SDS011;3211;53.452;-2.264;2023-01-28T06:15:28;14.23;;;9.40;;
6356;SDS011;3211;53.452;-2.264;2023-01-28T06:17:55;12.63;;;10.00;;
6356;SDS011;3211;53.452;-2.264;2023-01-28T06:20:23;14.10;;;10.43;;
6356;SDS011;3211;53.452;-2.264;2023-01-28T06:22:50;12.33;;;9.63;;
6356;SDS011;3211;53.452;-2.264;2023-01-28T06:25:17;12.93;;;9.07;;
6356;SDS011;3211;53.452;-2.264;2023-01-28T06:27:44;11.97;;;9.27;;
6356;SDS011;3211;53.452;-2.264;2023-01-28T06:30:12;12.60;;;9.30;;
6356;SDS011;3211;53.452;-2.264;2023-01-28T06:32:39;12.63;;;8.77;;
6356;SDS011;3211;53.452;-2.264;2023-01-28T06:35:06;16.57;;;10.13;;
6356;SDS011;3211;53.452;-2.264;2023-01-28T06:37:35;13.83;;;9.73;;
6356;SDS011;3211;53.452;-2.264;2023-01-28T06:40:04;11.60;;;8.33;;
6356;SDS011;3211;53.452;-2.264;2023-01-28T06:42:31;12.60;;;8.90;;
6356;SDS011;3211;53.452;-2.264;2023-01-28T06:44:58;11.13;;;9.10;;
6356;SDS011;3211;53.452;-2.264;2023-01-28T06:47:25;11.10;;;8.57;;
6356;SDS011;3211;53.452;-2.264;2023-01-28T06:49:52;11.93;;;8.53;;
6356;SDS011;3211;53.452;-2.264;2023-01-28T06:52:19;12.80;;;8.60;;
6356;SDS011;3211;53.452;-2.264;2023-01-28T06:54:47;11.10;;;8.07;;
6356;SDS011;3211;53.452;-2.264;2023-01-28T06:57:14;11.73;;;8.30;;
6356;SDS011;3211;53.452;-2.264;2023-01-28T06:59:41;14.80;;;8.63;;
6356;SDS011;3211;53.452;-2.264;2023-01-28T07:02:08;10.40;;;7.67;;
6356;SDS011;3211;53.452;-2.264;2023-01-28T07:04:36;13.03;;;8.60;;
6356;SDS011;3211;53.452;-2.264;2023-01-28T07:07:03;11.70;;;8.20;;
6356;SDS011;3211;53.452;-2.264;2023-01-28T07:09:30;13.97;;;9.07;;
6356;SDS011;3211;53.452;-2.264;2023-01-28T07:11:58;11.13;;;9.07;;
6356;SDS011;3211;53.452;-2.264;2023-01-28T07:14:29;10.63;;;7.93;;
6356;SDS011;3211;53.452;-2.264;2023-01-28T07:16:56;13.73;;;8.77;;
6356;SDS011;3211;53.452;-2.264;2023-01-28T07:19:23;13.27;;;7.97;;
6356;SDS011;3211;53.452;-2.264;2023-01-28T07:21:49;10.77;;;7.70;;
6356;SDS011;3211;53.452;-2.264;2023-01-28T07:24:16;9.73;;;7.30;;
6356;SDS011;3211;53.452;-2.264;2023-01-28T07:26:43;11.43;;;8.00;;
6356;SDS011;3211;53.452;-2.264;2023-01-28T07:29:14;12.67;;;9.00;;
6356;SDS011;3211;53.452;-2.264;2023-01-28T07:31:41;9.90;;;7.77;;
6356;SDS011;3211;53.452;-2.264;2023-01-28T07:34:08;11.90;;;7.43;;
6356;SDS011;3211;53.452;-2.264;2023-01-28T07:36:35;15.57;;;8.03;;
6356;SDS011;3211;53.452;-2.264;2023-01-28T07:39:02;12.83;;;8.00;;
6356;SDS011;3211;53.452;-2.264;2023-01-28T07:41:29;11.00;;;7.90;;
6356;SDS011;3211;53.452;-2.264;2023-01-28T07:43:56;12.90;;;8.00;;
6356;SDS011;3211;53.452;-2.264;2023-01-28T07:46:24;10.60;;;7.37;;
6356;SDS011;3211;53.452;-2.264;2023-01-28T07:48:51;11.87;;;7.83;;
6356;SDS011;3211;53.452;-2.264;2023-01-28T07:51:18;12.37;;;8.10;;
6356;SDS011;3211;53.452;-2.264;2023-01-28T07:53:45;11.20;;;7.00;;
6356;SDS011;3211;53.452;-2.264;2023-01-28T07:56:12;9.13;;;6.87;;
6356;SDS011;3211;53.452;-2.264;2023-01-28T07:58:39;11.90;;;6.93;;
6356;SDS011;3211;53.452;-2.264;2023-01-28T08:01:06;9.80;;;7.17;;
6356;SDS011;3211;53.452;-2.264;2023-01-28T08:03:34;11.23;;;8.70;;
6356;SDS011;3211;53.452;-2.264;2023-01-28T08:06:01;9.87;;;7.13;;
6356;SDS011;3211;53.452;-2.264;2023-01-28T08:08:28;8.70;;;6.70;;
6356;SDS011;3211;53.452;-2.264;2023-01-28T08:10:55;11.20;;;7.50;;
6356;SDS011;3211;53.452;-2.264;2023-01-28T08:13:22;13.10;;;7.43;;
6356;SDS011;3211;53.452;-2.264;2023-01-28T08:15:48;11.13;;;6.90;;
6356;SDS011;3211;53.452;-2.264;2023-01-28T08:18:20;11.43;;;6.60;;
6356;SDS011;3211;53.452;-2.264;2023-01-28T08:20:48;11.20;;;7.37;;
6356;SDS011;3211;53.452;-2.264;2023-01-28T08:23:20;13.93;;;7.53;;
6356;SDS011;3211;53.452;-2.264;2023-01-28T08:25:47;10.83;;;7.23;;
6356;SDS011;3211;53.452;-2.264;2023-01-28T08:28:15;10.17;;;7.33;;
6356;SDS011;3211;53.452;-2.264;2023-01-28T08:30:42;10.70;;;7.20;;
6356;SDS011;3211;53.452;-2.264;2023-01-28T08:33:10;9.20;;;6.70;;
6356;SDS011;3211;53.452;-2.264;2023-01-28T08:35:38;10.03;;;6.73;;
6356;SDS011;3211;53.452;-2.264;2023-01-28T08:38:07;9.50;;;6.23;;
6356;SDS011;3211;53.452;-2.264;2023-01-28T08:40:34;10.83;;;7.00;;
6356;SDS011;3211;53.452;-2.264;2023-01-28T08:43:02;8.33;;;6.97;;
6356;SDS011;3211;53.452;-2.264;2023-01-28T08:45:29;9.53;;;7.47;;
6356;SDS011;3211;53.452;-2.264;2023-01-28T08:47:57;9.90;;;6.47;;
6356;SDS011;3211;53.452;-2.264;2023-01-28T08:50:26;7.57;;;6.57;;
6356;SDS011;3211;53.452;-2.264;2023-01-28T08:52:57;9.93;;;7.27;;
6356;SDS011;3211;53.452;-2.264;2023-01-28T08:55:26;11.60;;;6.63;;
6356;SDS011;3211;53.452;-2.264;2023-01-28T08:57:54;9.23;;;7.00;;
6356;SDS011;3211;53.452;-2.264;2023-01-28T09:00:21;11.13;;;7.33;;
6356;SDS011;3211;53.452;-2.264;2023-01-28T09:02:49;11.77;;;7.40;;
6356;SDS011;3211;53.452;-2.264;2023-01-28T09:05:17;11.87;;;6.37;;
6356;SDS011;3211;53.452;-2.264;2023-01-28T09:07:45;11.40;;;7.03;;
6356;SDS011;3211;53.452;-2.264;2023-01-28T09:10:12;10.67;;;7.23;;
6356;SDS011;3211;53.452;-2.264;2023-01-28T09:12:43;13.97;;;7.47;;
6356;SDS011;3211;53.452;-2.264;2023-01-28T09:15:10;15.40;;;6.80;;
6356;SDS011;3211;53.452;-2.264;2023-01-28T09:17:37;10.50;;;6.70;;
6356;SDS011;3211;53.452;-2.264;2023-01-28T09:20:06;12.30;;;6.07;;
6356;SDS011;3211;53.452;-2.264;2023-01-28T09:22:34;11.43;;;5.10;;
6356;SDS011;3211;53.452;-2.264;2023-01-28T09:25:01;12.90;;;6.60;;
6356;SDS011;3211;53.452;-2.264;2023-01-28T09:27:27;7.90;;;5.73;;
6356;SDS011;3211;53.452;-2.264;2023-01-28T09:29:56;14.63;;;7.73;;
6356;SDS011;3211;53.452;-2.264;2023-01-28T09:32:23;15.00;;;6.17;;
6356;SDS011;3211;53.452;-2.264;2023-01-28T09:34:50;12.13;;;5.90;;
6356;SDS011;3211;53.452;-2.264;2023-01-28T09:37:17;9.13;;;5.80;;
6356;SDS011;3211;53.452;-2.264;2023-01-28T09:39:43;11.23;;;5.37;;
6356;SDS011;3211;53.452;-2.264;2023-01-28T09:42:18;9.67;;;4.83;;
6356;SDS011;3211;53.452;-2.264;2023-01-28T09:45:00;13.40;;;5.90;;
6356;SDS011;3211;53.452;-2.264;2023-01-28T09:47:33;15.80;;;6.53;;
6356;SDS011;3211;53.452;-2.264;2023-01-28T09:50:05;9.10;;;5.73;;
6356;SDS011;3211;53.452;-2.264;2023-01-28T09:52:35;13.03;;;6.40;;
6356;SDS011;3211;53.452;-2.264;2023-01-28T09:55:06;11.03;;;5.60;;
6356;SDS011;3211;53.452;-2.264;2023-01-28T09:57:39;12.30;;;6.40;;
6356;SDS011;3211;53.452;-2.264;2023-01-28T10:00:15;7.87;;;5.30;;
6356;SDS011;3211;53.452;-2.264;2023-01-28T10:02:49;8.13;;;5.67;;
6356;SDS011;3211;53.452;-2.264;2023-01-28T10:05:27;7.80;;;5.97;;
6356;SDS011;3211;53.452;-2.264;2023-01-28T10:08:02;11.97;;;6.13;;
6356;SDS011;3211;53.452;-2.264;2023-01-28T10:10:39;10.03;;;5.90;;
6356;SDS011;3211;53.452;-2.264;2023-01-28T10:13:15;9.80;;;5.97;;
6356;SDS011;3211;53.452;-2.264;2023-01-28T10:16:04;9.23;;;5.23;;
6356;SDS011;3211;53.452;-2.264;2023-01-28T10:18:39;7.83;;;5.53;;
6356;SDS011;3211;53.452;-2.264;2023-01-28T10:21:11;10.57;;;5.40;;
6356;SDS011;3211;53.452;-2.264;2023-01-28T10:23:45;9.43;;;5.53;;
6356;SDS011;3211;53.452;-2.264;2023-01-28T10:26:22;14.40;;;6.27;;
6356;SDS011;3211;53.452;-2.264;2023-01-28T10:28:55;11.00;;;5.27;;
6356;SDS011;3211;53.452;-2.264;2023-01-28T10:31:29;14.30;;;5.00;;
6356;SDS011;3211;53.452;-2.264;2023-01-28T10:33:58;10.57;;;5.40;;
6356;SDS011;3211;53.452;-2.264;2023-01-28T10:36:26;6.60;;;5.13;;
6356;SDS011;3211;53.452;-2.264;2023-01-28T10:38:53;6.50;;;4.23;;
6356;SDS011;3211;53.452;-2.264;2023-01-28T10:41:20;8.37;;;4.77;;
6356;SDS011;3211;53.452;-2.264;2023-01-28T10:43:49;10.17;;;4.97;;
6356;SDS011;3211;53.452;-2.264;2023-01-28T10:46:17;15.60;;;4.50;;
6356;SDS011;3211;53.452;-2.264;2023-01-28T10:48:52;9.20;;;4.57;;
6356;SDS011;3211;53.452;-2.264;2023-01-28T10:51:31;11.00;;;5.50;;
6356;SDS011;3211;53.452;-2.264;2023-01-28T10:53:59;20.93;;;5.97;;
6356;SDS011;3211;53.452;-2.264;2023-01-28T10:56:27;13.53;;;4.90;;
6356;SDS011;3211;53.452;-2.264;2023-01-28T10:58:57;12.50;;;5.20;;
6356;SDS011;3211;53.452;-2.264;2023-01-28T11:01:40;7.63;;;4.97;;
6356;SDS011;3211;53.452;-2.264;2023-01-28T11:04:18;8.20;;;5.03;;
6356;SDS011;3211;53.452;-2.264;2023-01-28T11:06:51;12.27;;;5.20;;
6356;SDS011;3211;53.452;-2.264;2023-01-28T11:09:20;10.17;;;5.67;;
6356;SDS011;3211;53.452;-2.264;2023-01-28T11:11:49;10.07;;;4.93;;
6356;SDS011;3211;53.452;-2.264;2023-01-28T11:14:19;13.47;;;5.40;;
6356;SDS011;3211;53.452;-2.264;2023-01-28T11:16:47;12.13;;;6.40;;
6356;SDS011;3211;53.452;-2.264;2023-01-28T11:19:18;10.00;;;5.70;;
6356;SDS011;3211;53.452;-2.264;2023-01-28T11:21:50;13.00;;;6.30;;
6356;SDS011;3211;53.452;-2.264;2023-01-28T11:24:20;17.73;;;5.13;;
6356;SDS011;3211;53.452;-2.264;2023-01-28T11:26:49;12.57;;;5.23;;
6356;SDS011;3211;53.452;-2.264;2023-01-28T11:29:23;9.83;;;6.37;;
6356;SDS011;3211;53.452;-2.264;2023-01-28T11:31:53;16.20;;;5.47;;
6356;SDS011;3211;53.452;-2.264;2023-01-28T11:34:24;11.73;;;4.83;;
6356;SDS011;3211;53.452;-2.264;2023-01-28T11:36:53;7.73;;;5.10;;
6356;SDS011;3211;53.452;-2.264;2023-01-28T11:39:27;13.40;;;4.17;;
6356;SDS011;3211;53.452;-2.264;2023-01-28T11:42:02;8.07;;;4.30;;
6356;SDS011;3211;53.452;-2.264;2023-01-28T11:44:36;12.70;;;4.67;;
6356;SDS011;3211;53.452;-2.264;2023-01-28T11:47:10;12.97;;;4.40;;
6356;SDS011;3211;53.452;-2.264;2023-01-28T11:50:03;10.23;;;5.50;;
6356;SDS011;3211;53.452;-2.264;2023-01-28T11:52:45;7.90;;;4.27;;
6356;SDS011;3211;53.452;-2.264;2023-01-28T11:55:27;12.80;;;4.40;;
6356;SDS011;3211;53.452;-2.264;2023-01-28T11:58:08;11.23;;;4.20;;
6356;SDS011;3211;53.452;-2.264;2023-01-28T12:00:46;8.73;;;3.83;;
6356;SDS011;3211;53.452;-2.264;2023-01-28T12:03:36;7.27;;;4.63;;
6356;SDS011;3211;53.452;-2.264;2023-01-28T12:06:25;6.03;;;4.43;;
6356;SDS011;3211;53.452;-2.264;2023-01-28T12:09:04;7.87;;;4.50;;
6356;SDS011;3211;53.452;-2.264;2023-01-28T12:11:41;7.57;;;4.57;;
6356;SDS011;3211;53.452;-2.264;2023-01-28T12:14:38;4.70;;;4.03;;
6356;SDS011;3211;53.452;-2.264;2023-01-28T12:17:24;13.40;;;5.10;;
6356;SDS011;3211;53.452;-2.264;2023-01-28T12:20:04;16.27;;;4.60;;
6356;SDS011;3211;53.452;-2.264;2023-01-28T12:22:51;6.67;;;5.10;;
6356;SDS011;3211;53.452;-2.264;2023-01-28T12:25:44;8.57;;;4.90;;
6356;SDS011;3211;53.452;-2.264;2023-01-28T12:28:27;10.97;;;5.10;;
6356;SDS011;3211;53.452;-2.264;2023-01-28T12:31:06;16.80;;;7.13;;
6356;SDS011;3211;53.452;-2.264;2023-01-28T12:36:40;7.17;;;4.60;;
6356;SDS011;3211;53.452;-2.264;2023-01-28T12:39:18;11.13;;;4.80;;
6356;SDS011;3211;53.452;-2.264;2023-01-28T12:41:54;12.90;;;5.30;;
6356;SDS011;3211;53.452;-2.264;2023-01-28T12:44:30;8.43;;;4.80;;
6356;SDS011;3211;53.452;-2.264;2023-01-28T12:47:01;12.83;;;5.50;;
6356;SDS011;3211;53.452;-2.264;2023-01-28T12:49:34;9.40;;;5.00;;
6356;SDS011;3211;53.452;-2.264;2023-01-28T12:52:07;14.30;;;9.40;;
6356;SDS011;3211;53.452;-2.264;2023-01-28T12:54:43;8.57;;;5.83;;
6356;SDS011;3211;53.452;-2.264;2023-01-28T12:57:20;13.80;;;8.63;;
6356;SDS011;3211;53.452;-2.264;2023-01-28T12:59:50;18.15;;;12.23;;
6356;SDS011;3211;53.452;-2.264;2023-01-28T13:02:23;27.03;;;15.50;;
6356;SDS011;3211;53.452;-2.264;2023-01-28T13:04:55;33.37;;;17.00;;
6356;SDS011;3211;53.452;-2.264;2023-01-28T13:07:31;10.77;;;7.40;;
6356;SDS011;3211;53.452;-2.264;2023-01-28T13:10:08;9.50;;;6.20;;
6356;SDS011;3211;53.452;-2.264;2023-01-28T13:12:42;10.33;;;7.07;;
6356;SDS011;3211;53.452;-2.264;2023-01-28T13:15:11;10.00;;;7.80;;
6356;SDS011;3211;53.452;-2.264;2023-01-28T13:17:52;12.73;;;8.43;;
6356;SDS011;3211;53.452;-2.264;2023-01-28T13:20:28;13.43;;;8.30;;
6356;SDS011;3211;53.452;-2.264;2023-01-28T13:23:00;13.00;;;8.20;;
6356;SDS011;3211;53.452;-2.264;2023-01-28T13:25:32;11.83;;;8.43;;
6356;SDS011;3211;53.452;-2.264;2023-01-28T13:28:00;11.70;;;8.10;;
6356;SDS011;3211;53.452;-2.264;2023-01-28T13:30:29;15.37;;;8.33;;
6356;SDS011;3211;53.452;-2.264;2023-01-28T13:32:58;14.53;;;9.10;;
6356;SDS011;3211;53.452;-2.264;2023-01-28T13:35:28;11.67;;;8.13;;
6356;SDS011;3211;53.452;-2.264;2023-01-28T13:37:58;15.67;;;9.50;;
6356;SDS011;3211;53.452;-2.264;2023-01-28T13:40:33;14.23;;;9.50;;
6356;SDS011;3211;53.452;-2.264;2023-01-28T13:43:02;14.03;;;8.40;;
6356;SDS011;3211;53.452;-2.264;2023-01-28T13:45:30;13.50;;;8.60;;
6356;SDS011;3211;53.452;-2.264;2023-01-28T13:47:59;17.03;;;10.80;;
6356;SDS011;3211;53.452;-2.264;2023-01-28T13:50:40;12.33;;;9.10;;
6356;SDS011;3211;53.452;-2.264;2023-01-28T13:53:15;14.10;;;10.37;;
6356;SDS011;3211;53.452;-2.264;2023-01-28T13:55:47;15.20;;;10.00;;
6356;SDS011;3211;53.452;-2.264;2023-01-28T14:01:37;17.27;;;10.90;;
6356;SDS011;3211;53.452;-2.264;2023-01-28T14:04:42;13.80;;;9.93;;
6356;SDS011;3211;53.452;-2.264;2023-01-28T14:07:29;18.93;;;9.50;;
6356;SDS011;3211;53.452;-2.264;2023-01-28T14:10:17;11.20;;;8.70;;
6356;SDS011;3211;53.452;-2.264;2023-01-28T14:16:15;10.20;;;8.90;;
6356;SDS011;3211;53.452;-2.264;2023-01-28T14:18:48;12.03;;;9.73;;
6356;SDS011;3211;53.452;-2.264;2023-01-28T14:21:18;18.57;;;12.00;;
6356;SDS011;3211;53.452;-2.264;2023-01-28T14:23:47;18.47;;;9.53;;
6356;SDS011;3211;53.452;-2.264;2023-01-28T14:26:18;16.67;;;10.83;;
6356;SDS011;3211;53.452;-2.264;2023-01-28T14:28:57;10.73;;;9.43;;
6356;SDS011;3211;53.452;-2.264;2023-01-28T14:31:30;12.97;;;8.97;;
6356;SDS011;3211;53.452;-2.264;2023-01-28T14:34:03;13.67;;;8.53;;
6356;SDS011;3211;53.452;-2.264;2023-01-28T14:36:36;17.87;;;11.83;;
6356;SDS011;3211;53.452;-2.264;2023-01-28T14:39:05;18.73;;;10.73;;
6356;SDS011;3211;53.452;-2.264;2023-01-28T14:41:42;13.70;;;10.10;;
6356;SDS011;3211;53.452;-2.264;2023-01-28T14:44:13;19.00;;;12.50;;
6356;SDS011;3211;53.452;-2.264;2023-01-28T14:46:55;16.33;;;12.50;;
6356;SDS011;3211;53.452;-2.264;2023-01-28T14:49:46;22.13;;;13.87;;
6356;SDS011;3211;53.452;-2.264;2023-01-28T14:52:32;20.30;;;12.57;;
6356;SDS011;3211;53.452;-2.264;2023-01-28T14:55:19;11.17;;;9.97;;
6356;SDS011;3211;53.452;-2.264;2023-01-28T14:57:55;9.83;;;7.90;;
6356;SDS011;3211;53.452;-2.264;2023-01-28T15:00:26;11.10;;;9.30;;
6356;SDS011;3211;53.452;-2.264;2023-01-28T15:02:54;10.70;;;8.20;;
6356;SDS011;3211;53.452;-2.264;2023-01-28T15:05:22;11.67;;;9.57;;
6356;SDS011;3211;53.452;-2.264;2023-01-28T15:07:51;12.77;;;11.40;;
6356;SDS011;3211;53.452;-2.264;2023-01-28T15:10:20;7.50;;;6.70;;
6356;SDS011;3211;53.452;-2.264;2023-01-28T15:12:54;10.87;;;6.33;;
6356;SDS011;3211;53.452;-2.264;2023-01-28T15:15:27;12.00;;;7.70;;
6356;SDS011;3211;53.452;-2.264;2023-01-28T15:17:58;17.10;;;9.40;;
6356;SDS011;3211;53.452;-2.264;2023-01-28T15:20:28;7.83;;;6.80;;
6356;SDS011;3211;53.452;-2.264;2023-01-28T15:22:55;12.63;;;8.60;;
6356;SDS011;3211;53.452;-2.264;2023-01-28T15:25:23;7.70;;;6.87;;